createdAt,value
2018-01-10T00:01:32.464Z,57.20
2018-01-10T00:03:59.913Z,59.03
2018-01-10T00:06:27.343Z,57.17
2018-01-10T00:08:54.835Z,69.07
2018-01-10T00:11:22.225Z,67.50
2018-01-10T00:13:49.749Z,65.67
2018-01-10T00:16:17.310Z,73.10
2018-01-10T00:18:44.707Z,67.10
2018-01-10T00:21:12.115Z,66.63
2018-01-10T00:23:39.517Z,67.23
2018-01-10T00:26:07.138Z,60.67
2018-01-10T00:28:34.634Z,63.10
2018-01-10T00:31:02.089Z,64.77
2018-01-10T00:33:29.610Z,70.30
2018-01-10T00:35:57.170Z,64.23
2018-01-10T00:38:24.667Z,68.27
2018-01-10T00:40:52.225Z,64.37
2018-01-10T00:43:19.649Z,60.07
2018-01-10T00:45:47.040Z,60.40
2018-01-10T00:48:14.473Z,62.90
2018-01-10T00:50:42.014Z,59.83
2018-01-10T00:53:09.574Z,65.73
2018-01-10T00:55:37.074Z,63.87
2018-01-10T00:58:04.590Z,69.43
2018-01-10T01:00:32.047Z,72.50
2018-01-10T01:02:59.545Z,67.27
2018-01-10T01:05:26.937Z,66.70
2018-01-10T01:07:54.445Z,68.70
2018-01-10T01:10:21.834Z,74.10
2018-01-10T01:12:49.228Z,75.07
2018-01-10T01:15:16.633Z,72.70
2018-01-10T01:17:47.277Z,77.07
2018-01-10T01:20:14.680Z,66.23
2018-01-10T01:22:42.232Z,73.40
2018-01-10T01:25:09.629Z,68.80
2018-01-10T01:27:37.081Z,77.13
2018-01-10T01:30:04.603Z,71.10
2018-01-10T01:32:32.162Z,71.17
2018-01-10T01:34:59.575Z,75.13
2018-01-10T01:37:27.179Z,67.37
2018-01-10T01:39:54.738Z,74.57
2018-01-10T01:42:22.126Z,79.83
2018-01-10T01:44:49.537Z,77.40
2018-01-10T01:47:17.109Z,77.77
2018-01-10T01:49:44.668Z,87.40
2018-01-10T01:52:12.126Z,77.47
2018-01-10T01:54:39.891Z,81.23
2018-01-10T01:57:07.324Z,87.53
2018-01-10T01:59:34.709Z,82.23
2018-01-10T02:02:02.150Z,78.83
2018-01-10T02:04:29.543Z,81.30
2018-01-10T02:06:57.072Z,79.07
2018-01-10T02:09:24.493Z,80.33
2018-01-10T02:11:52.028Z,85.93
2018-01-10T02:14:19.548Z,87.17
2018-01-10T02:16:46.979Z,82.50
2018-01-10T02:19:14.394Z,93.10
2018-01-10T02:21:41.917Z,91.87
2018-01-10T02:24:09.354Z,95.43
2018-01-10T02:26:36.738Z,92.47
2018-01-10T02:29:04.117Z,85.90
2018-01-10T02:31:31.848Z,95.10
2018-01-10T02:33:59.407Z,92.17
2018-01-10T02:36:26.792Z,97.10
2018-01-10T02:38:54.256Z,96.90
2018-01-10T02:41:21.672Z,102.33
2018-01-10T02:43:49.998Z,99.57
2018-01-10T02:46:17.414Z,99.43
2018-01-10T02:48:44.806Z,99.60
2018-01-10T02:51:12.324Z,107.10
2018-01-10T02:53:39.882Z,109.17
2018-01-10T02:56:07.265Z,99.83
2018-01-10T02:58:34.733Z,97.07
2018-01-10T03:01:02.355Z,100.50
2018-01-10T03:03:29.750Z,103.53
2018-01-10T03:05:57.205Z,99.47
2018-01-10T03:08:24.830Z,110.97
2018-01-10T03:10:52.388Z,109.67
2018-01-10T03:13:19.828Z,100.27
2018-01-10T03:15:47.258Z,100.57
2018-01-10T03:18:14.641Z,97.23
2018-01-10T03:20:42.021Z,96.70
2018-01-10T03:23:09.457Z,92.47
2018-01-10T03:25:36.866Z,101.20
2018-01-10T03:28:04.281Z,99.90
2018-01-10T03:30:31.773Z,99.57
2018-01-10T03:32:59.308Z,97.90
2018-01-10T03:35:27.370Z,91.80
2018-01-10T03:37:54.926Z,91.20
2018-01-10T03:40:22.353Z,88.67
2018-01-10T03:42:49.741Z,95.30
2018-01-10T03:45:17.197Z,87.03
2018-01-10T03:47:44.756Z,88.67
2018-01-10T03:50:12.248Z,81.63
2018-01-10T03:52:39.808Z,85.07
2018-01-10T03:55:07.264Z,90.90
2018-01-10T03:57:34.657Z,92.47
2018-01-10T04:00:02.182Z,85.77
2018-01-10T04:02:29.571Z,85.57
2018-01-10T04:04:56.954Z,88.10
2018-01-10T04:07:24.449Z,103.03
2018-01-10T04:09:51.849Z,95.23
2018-01-10T04:12:19.537Z,103.47
2018-01-10T04:14:46.926Z,95.23
2018-01-10T04:17:14.340Z,90.50
2018-01-10T04:19:41.836Z,95.83
2018-01-10T04:22:09.220Z,96.90
2018-01-10T04:24:36.605Z,94.27
2018-01-10T04:27:04.170Z,101.93
2018-01-10T04:29:31.563Z,89.47
2018-01-10T04:31:59.021Z,89.73
2018-01-10T04:34:26.540Z,107.07
2018-01-10T04:36:54.025Z,95.03
2018-01-10T04:39:21.493Z,101.13
2018-01-10T04:41:49.034Z,92.77
2018-01-10T04:44:16.430Z,97.23
2018-01-10T04:46:43.869Z,100.03
2018-01-10T04:49:11.386Z,97.47
2018-01-10T04:51:38.813Z,95.27
2018-01-10T04:54:06.273Z,90.47
2018-01-10T04:56:33.860Z,92.77
2018-01-10T04:59:01.303Z,92.93
2018-01-10T05:01:28.721Z,91.73
2018-01-10T05:03:56.123Z,98.70
2018-01-10T05:06:23.496Z,101.47
2018-01-10T05:08:51.686Z,91.37
2018-01-10T05:11:19.065Z,95.80
2018-01-10T05:13:46.457Z,111.13
2018-01-10T05:16:13.837Z,98.37
2018-01-10T05:18:41.223Z,105.60
2018-01-10T05:21:08.616Z,102.37
2018-01-10T05:23:36.005Z,93.93
2018-01-10T05:26:03.434Z,95.63
2018-01-10T05:28:30.888Z,107.87
2018-01-10T05:30:58.274Z,118.53
2018-01-10T05:33:25.665Z,118.53
2018-01-10T05:35:53.261Z,155.80
2018-01-10T05:38:20.637Z,137.13
2018-01-10T05:40:48.006Z,122.20
2018-01-10T05:43:15.425Z,112.07
2018-01-10T05:45:42.837Z,134.30
2018-01-10T05:48:10.233Z,123.40
2018-01-10T05:50:37.588Z,150.20
2018-01-10T05:53:05.014Z,113.17
2018-01-10T05:55:32.377Z,131.50
2018-01-10T05:58:00.718Z,105.93
2018-01-10T06:00:28.179Z,103.00
2018-01-10T06:02:55.537Z,97.57
2018-01-10T06:05:22.896Z,159.97
2018-01-10T06:07:50.320Z,122.93
2018-01-10T06:10:17.697Z,126.87
2018-01-10T06:12:45.077Z,128.30
2018-01-10T06:15:12.492Z,125.53
2018-01-10T06:17:39.921Z,119.10
2018-01-10T06:20:07.294Z,111.70
2018-01-10T06:22:34.675Z,116.10
2018-01-10T06:25:02.099Z,135.93
2018-01-10T06:27:29.481Z,104.20
2018-01-10T06:29:56.872Z,96.47
2018-01-10T06:32:24.300Z,103.80
2018-01-10T06:34:51.678Z,108.87
2018-01-10T06:37:19.065Z,138.63
2018-01-10T06:39:46.467Z,114.27
2018-01-10T06:42:13.829Z,117.00
2018-01-10T06:44:41.189Z,129.40
2018-01-10T06:47:08.613Z,110.27
2018-01-10T06:49:35.996Z,91.37
2018-01-10T06:52:03.389Z,105.37
2018-01-10T06:54:30.805Z,137.07
2018-01-10T06:56:58.253Z,113.80
2018-01-10T06:59:25.622Z,107.30
2018-01-10T07:01:53.061Z,117.03
2018-01-10T07:04:20.449Z,99.43
2018-01-10T07:06:47.814Z,104.60
2018-01-10T07:09:15.233Z,101.20
2018-01-10T07:11:42.598Z,144.00
2018-01-10T07:14:10.043Z,101.43
2018-01-10T07:16:37.496Z,106.23
2018-01-10T07:19:04.865Z,118.23
2018-01-10T07:21:32.306Z,130.10
2018-01-10T07:23:59.693Z,116.60
2018-01-10T07:26:27.121Z,104.23
2018-01-10T07:28:54.508Z,104.80
2018-01-10T07:31:21.874Z,105.60
2018-01-10T07:33:49.276Z,148.43
2018-01-10T07:36:16.709Z,130.90
2018-01-10T07:38:44.080Z,117.93
2018-01-10T07:41:11.630Z,121.77
2018-01-10T07:43:39.051Z,119.83
2018-01-10T07:46:06.442Z,146.50
2018-01-10T07:48:33.825Z,129.73
2018-01-10T07:51:01.240Z,124.93
2018-01-10T07:53:28.627Z,155.77
2018-01-10T07:55:55.989Z,129.30
2018-01-10T07:58:23.429Z,129.73
2018-01-10T08:00:50.825Z,101.70
2018-01-10T08:03:18.194Z,158.00
2018-01-10T08:05:45.792Z,128.40
2018-01-10T08:08:13.161Z,87.00
2018-01-10T08:10:40.523Z,117.83
2018-01-10T08:13:07.954Z,111.23
2018-01-10T08:15:35.317Z,111.70
2018-01-10T08:18:03.310Z,115.77
2018-01-10T08:20:30.730Z,180.67
2018-01-10T08:22:58.105Z,135.13
2018-01-10T08:25:25.489Z,100.63
2018-01-10T08:27:52.936Z,104.43
2018-01-10T08:30:20.317Z,96.17
2018-01-10T08:32:47.721Z,137.93
2018-01-10T08:35:15.153Z,118.73
2018-01-10T08:37:42.522Z,145.53
2018-01-10T08:40:10.035Z,106.30
2018-01-10T08:42:37.575Z,160.70
2018-01-10T08:45:04.984Z,98.70
2018-01-10T08:47:32.364Z,132.20
2018-01-10T08:49:59.789Z,106.67
2018-01-10T08:52:27.197Z,95.57
2018-01-10T08:54:54.567Z,103.80
2018-01-10T08:57:21.969Z,86.90
2018-01-10T08:59:49.334Z,99.70
2018-01-10T09:02:16.721Z,97.93
2018-01-10T09:04:44.247Z,108.03
2018-01-10T09:07:11.807Z,93.43
2018-01-10T09:09:39.188Z,99.83
2018-01-10T09:12:06.601Z,87.60
2018-01-10T09:14:33.980Z,83.03
2018-01-10T09:17:01.350Z,85.63
2018-01-10T09:19:28.765Z,79.40
2018-01-10T09:21:56.161Z,80.40
2018-01-10T09:24:23.525Z,73.27
2018-01-10T09:26:50.948Z,103.43
2018-01-10T09:29:18.332Z,75.13
2018-01-10T09:31:45.714Z,88.07
2018-01-10T09:34:13.394Z,96.90
2018-01-10T09:36:40.788Z,66.83
2018-01-10T09:39:08.177Z,72.73
2018-01-10T09:41:35.610Z,61.13
2018-01-10T09:44:02.999Z,70.17
2018-01-10T09:46:30.417Z,75.17
2018-01-10T09:48:57.810Z,82.87
2018-01-10T09:51:25.197Z,71.33
2018-01-10T09:53:52.606Z,73.67
2018-01-10T09:56:20.001Z,88.40
2018-01-10T09:58:47.389Z,69.77
2018-01-10T10:01:14.786Z,73.17
2018-01-10T10:03:42.169Z,74.63
2018-01-10T10:06:09.557Z,80.13
2018-01-10T10:08:36.972Z,106.00
2018-01-10T10:11:04.337Z,77.20
2018-01-10T10:13:31.697Z,95.27
2018-01-10T10:15:59.113Z,135.90
2018-01-10T10:18:26.482Z,84.30
2018-01-10T10:20:53.894Z,74.83
2018-01-10T10:23:21.300Z,75.80
2018-01-10T10:25:48.688Z,75.47
2018-01-10T10:28:16.150Z,79.07
2018-01-10T10:30:43.546Z,77.60
2018-01-10T10:33:10.945Z,82.37
2018-01-10T10:35:38.364Z,86.77
2018-01-10T10:38:05.873Z,82.13
2018-01-10T10:40:33.274Z,79.07
2018-01-10T10:43:00.711Z,83.10
2018-01-10T10:45:28.168Z,83.93
2018-01-10T10:47:55.554Z,68.77
2018-01-10T10:52:49.937Z,83.13
2018-01-10T10:55:17.381Z,72.30
2018-01-10T10:57:44.777Z,110.47
2018-01-10T11:00:12.141Z,81.37
2018-01-10T11:02:39.561Z,73.57
2018-01-10T11:05:06.923Z,84.97
2018-01-10T11:07:34.329Z,79.20
2018-01-10T11:10:01.867Z,87.40
2018-01-10T11:12:29.265Z,80.80
2018-01-10T11:14:56.658Z,79.43
2018-01-10T11:17:24.098Z,98.70
2018-01-10T11:19:51.511Z,93.90
2018-01-10T11:22:18.916Z,63.10
2018-01-10T11:24:46.291Z,70.20
2018-01-10T11:27:13.663Z,65.10
2018-01-10T11:29:41.097Z,63.30
2018-01-10T11:32:08.459Z,75.80
2018-01-10T11:34:35.828Z,72.25
2018-01-10T11:37:03.305Z,69.77
2018-01-10T11:39:30.692Z,84.00
2018-01-10T11:41:58.091Z,67.57
2018-01-10T11:44:25.526Z,82.20
2018-01-10T11:49:43.371Z,89.13
2018-01-10T11:52:10.761Z,76.27
2018-01-10T11:54:38.193Z,75.00
2018-01-10T11:57:05.560Z,75.37
2018-01-10T11:59:32.990Z,92.80
2018-01-10T12:02:00.405Z,83.07
2018-01-10T12:04:27.805Z,81.73
2018-01-10T12:06:55.192Z,70.23
2018-01-10T12:09:22.655Z,65.27
2018-01-10T12:11:50.057Z,73.07
2018-01-10T12:14:17.770Z,62.37
2018-01-10T12:16:45.194Z,69.37
2018-01-10T12:19:12.567Z,66.93
2018-01-10T12:21:39.997Z,65.63
2018-01-10T12:24:07.381Z,60.93
2018-01-10T12:26:34.845Z,63.17
2018-01-10T12:29:02.241Z,67.73
2018-01-10T12:31:29.649Z,62.60
2018-01-10T12:33:57.078Z,64.87
2018-01-10T12:36:24.485Z,67.13
2018-01-10T12:38:51.868Z,83.27
2018-01-10T12:41:19.318Z,85.83
2018-01-10T12:43:46.798Z,71.87
2018-01-10T12:46:14.304Z,66.73
2018-01-10T12:48:42.016Z,62.80
2018-01-10T12:51:09.382Z,62.33
2018-01-10T12:53:36.758Z,68.83
2018-01-10T12:56:04.189Z,68.77
2018-01-10T12:58:31.833Z,56.70
2018-01-10T13:00:59.213Z,59.80
2018-01-10T13:03:26.635Z,61.33
2018-01-10T13:05:54.117Z,64.30
2018-01-10T13:08:21.556Z,60.70
2018-01-10T13:10:49.204Z,67.50
2018-01-10T13:13:16.584Z,67.73
2018-01-10T13:15:44.151Z,71.27
2018-01-10T13:18:11.597Z,76.43
2018-01-10T13:20:39.009Z,59.20
2018-01-10T13:23:06.413Z,61.40
2018-01-10T13:25:33.829Z,58.70
2018-01-10T13:28:01.300Z,56.27
2018-01-10T13:30:28.838Z,59.20
2018-01-10T13:32:56.342Z,68.03
2018-01-10T13:35:23.789Z,69.23
2018-01-10T13:37:51.248Z,60.13
2018-01-10T13:40:18.631Z,62.27
2018-01-10T13:42:45.996Z,62.30
2018-01-10T13:45:13.430Z,87.80
2018-01-10T13:47:40.793Z,65.50
2018-01-10T13:50:08.158Z,69.20
2018-01-10T13:52:35.583Z,77.73
2018-01-10T13:55:03.028Z,69.57
2018-01-10T13:57:30.484Z,73.73
2018-01-10T13:59:58.087Z,67.47
2018-01-10T14:02:25.548Z,74.23
2018-01-10T14:04:52.965Z,75.63
2018-01-10T14:07:20.369Z,92.60
2018-01-10T14:09:47.859Z,70.13
2018-01-10T14:12:15.560Z,69.97
2018-01-10T14:14:43.122Z,65.60
2018-01-10T14:17:14.055Z,83.67
2018-01-10T14:19:41.487Z,70.00
2018-01-10T14:22:08.863Z,75.43
2018-01-10T14:24:36.257Z,72.83
2018-01-10T14:27:03.642Z,73.20
2018-01-10T14:29:31.103Z,89.17
2018-01-10T14:31:58.502Z,73.17
2018-01-10T14:34:25.856Z,65.73
2018-01-10T14:36:53.814Z,72.90
2018-01-10T14:39:21.269Z,68.73
2018-01-10T14:41:48.626Z,63.00
2018-01-10T14:44:16.009Z,88.10
2018-01-10T14:46:43.414Z,81.37
2018-01-10T14:49:10.813Z,81.90
2018-01-10T14:51:38.316Z,82.37
2018-01-10T14:54:05.760Z,69.60
2018-01-10T14:56:33.120Z,76.13
2018-01-10T14:59:00.614Z,83.80
2018-01-10T15:01:28.009Z,108.10
2018-01-10T15:03:55.374Z,80.00
2018-01-10T15:06:22.773Z,69.00
2018-01-10T15:08:50.170Z,71.83
2018-01-10T15:11:17.534Z,105.07
2018-01-10T15:13:44.923Z,76.83
2018-01-10T15:16:12.294Z,85.23
2018-01-10T15:18:39.692Z,181.00
2018-01-10T15:21:07.049Z,96.17
2018-01-10T15:23:34.491Z,87.57
2018-01-10T15:26:01.884Z,159.23
2018-01-10T15:28:29.245Z,107.90
2018-01-10T15:30:56.649Z,100.47
2018-01-10T15:33:24.018Z,93.30
2018-01-10T15:35:51.413Z,108.10
2018-01-10T15:38:18.809Z,161.83
2018-01-10T15:40:46.233Z,156.67
2018-01-10T15:43:13.650Z,103.17
2018-01-10T15:45:41.025Z,78.43
2018-01-10T15:48:08.440Z,77.13
2018-01-10T15:50:35.839Z,96.23
2018-01-10T15:53:03.206Z,90.00
2018-01-10T15:55:30.607Z,99.77
2018-01-10T15:57:58.032Z,141.57
2018-01-10T16:00:25.460Z,117.93
2018-01-10T16:02:52.968Z,103.67
2018-01-10T16:05:20.329Z,105.80
2018-01-10T16:07:47.754Z,105.37
2018-01-10T16:10:15.125Z,146.67
2018-01-10T16:12:42.556Z,100.30
2018-01-10T16:15:09.961Z,134.63
2018-01-10T16:17:37.339Z,137.57
2018-01-10T16:20:04.724Z,127.30
2018-01-10T16:22:32.122Z,122.23
2018-01-10T16:24:59.485Z,109.77
2018-01-10T16:27:26.873Z,146.73
2018-01-10T16:29:54.286Z,139.23
2018-01-10T16:32:21.690Z,173.70
2018-01-10T16:34:49.088Z,129.57
2018-01-10T16:37:16.500Z,116.03
2018-01-10T16:39:43.873Z,107.90
2018-01-10T16:42:11.242Z,154.93
2018-01-10T16:44:38.664Z,116.53
2018-01-10T16:47:06.029Z,124.67
2018-01-10T16:49:33.511Z,125.17
2018-01-10T16:52:00.965Z,131.70
2018-01-10T16:54:28.386Z,130.50
2018-01-10T16:56:55.782Z,114.00
2018-01-10T16:59:23.146Z,113.07
2018-01-10T17:01:50.569Z,119.40
2018-01-10T17:04:17.986Z,118.07
2018-01-10T17:06:45.368Z,120.00
2018-01-10T17:09:12.821Z,107.20
2018-01-10T17:11:40.193Z,133.93
2018-01-10T17:14:07.578Z,150.07
2018-01-10T17:16:34.998Z,130.13
2018-01-10T17:19:02.377Z,143.27
2018-01-10T17:21:29.793Z,151.33
2018-01-10T17:23:57.208Z,98.77
2018-01-10T17:26:24.569Z,127.33
2018-01-10T17:28:51.988Z,114.77
2018-01-10T17:31:19.378Z,118.20
2018-01-10T17:33:46.794Z,113.27
2018-01-10T17:36:14.249Z,180.87
2018-01-10T17:38:41.619Z,128.60
2018-01-10T17:41:09.982Z,97.07
2018-01-10T17:43:37.364Z,111.53
2018-01-10T17:46:04.895Z,95.20
2018-01-10T17:48:32.455Z,95.37
2018-01-10T17:51:00.031Z,96.93
2018-01-10T17:53:27.469Z,95.30
2018-01-10T17:55:54.969Z,111.37
2018-01-10T17:58:22.374Z,103.70
2018-01-10T18:00:49.944Z,103.20
2018-01-10T18:03:17.505Z,99.53
2018-01-10T18:05:44.914Z,163.50
2018-01-10T18:08:12.521Z,98.10
2018-01-10T18:10:40.079Z,100.70
2018-01-10T18:13:07.744Z,93.83
2018-01-10T18:15:35.506Z,123.23
2018-01-10T18:18:04.556Z,124.90
2018-01-10T18:20:32.469Z,102.50
2018-01-10T18:23:00.335Z,95.07
2018-01-10T18:25:28.100Z,91.00
2018-01-10T18:27:55.976Z,92.20
2018-01-10T18:30:23.730Z,128.70
2018-01-10T18:32:51.406Z,113.03
2018-01-10T18:35:19.055Z,102.77
2018-01-10T18:37:47.125Z,88.97
2018-01-10T18:40:14.853Z,80.17
2018-01-10T18:42:42.553Z,93.40
2018-01-10T18:45:10.316Z,112.97
2018-01-10T18:47:37.979Z,109.80
2018-01-10T18:50:05.845Z,111.37
2018-01-10T18:52:33.812Z,114.43
2018-01-10T18:55:01.577Z,91.87
2018-01-10T18:57:29.342Z,87.07
2018-01-10T18:59:57.042Z,87.23
2018-01-10T19:02:24.705Z,86.80
2018-01-10T19:04:52.478Z,98.87
2018-01-10T19:07:20.705Z,123.67
2018-01-10T19:09:48.379Z,124.67
2018-01-10T19:12:16.131Z,65.17
2018-01-10T19:14:43.809Z,94.90
2018-01-10T19:17:11.396Z,74.70
2018-01-10T19:19:39.085Z,63.93
2018-01-10T19:22:06.620Z,73.77
2018-01-10T19:24:34.062Z,76.80
2018-01-10T19:27:01.501Z,78.40
2018-01-10T19:29:28.870Z,75.20
2018-01-10T19:31:56.265Z,75.33
2018-01-10T19:34:23.699Z,83.17
2018-01-10T19:36:51.317Z,79.57
2018-01-10T19:39:18.754Z,65.50
2018-01-10T19:41:46.177Z,96.47
2018-01-10T19:44:13.603Z,96.37
2018-01-10T19:46:40.987Z,88.83
2018-01-10T19:49:08.358Z,72.80
2018-01-10T19:51:35.855Z,83.83
2018-01-10T19:54:03.617Z,91.63
2018-01-10T19:56:33.320Z,82.23
2018-01-10T19:59:01.927Z,97.53
2018-01-10T20:01:29.646Z,95.17
2018-01-10T20:03:57.109Z,82.40
2018-01-10T20:06:24.529Z,78.50
2018-01-10T20:08:52.086Z,91.27
2018-01-10T20:11:19.467Z,83.80
2018-01-10T20:13:46.903Z,76.87
2018-01-10T20:16:14.294Z,93.27
2018-01-10T20:18:41.722Z,86.47
2018-01-10T20:21:09.086Z,84.53
2018-01-10T20:23:36.481Z,89.03
2018-01-10T20:26:04.045Z,84.30
2018-01-10T20:28:31.709Z,82.50
2018-01-10T20:30:59.124Z,84.63
2018-01-10T20:33:26.663Z,93.20
2018-01-10T20:35:54.086Z,76.10
2018-01-10T20:38:21.445Z,84.10
2018-01-10T20:40:52.769Z,83.70
2018-01-10T20:43:20.318Z,78.80
2018-01-10T20:45:47.681Z,92.60
2018-01-10T20:48:15.214Z,94.10
2018-01-10T20:50:42.596Z,100.63
2018-01-10T20:53:10.003Z,89.80
2018-01-10T20:55:37.399Z,94.93
2018-01-10T20:58:05.291Z,122.13
2018-01-10T21:00:32.669Z,116.50
2018-01-10T21:03:00.095Z,112.20
2018-01-10T21:05:27.482Z,101.43
2018-01-10T21:07:54.838Z,94.67
2018-01-10T21:10:22.229Z,114.83
2018-01-10T21:12:49.692Z,89.57
2018-01-10T21:15:17.029Z,112.53
2018-01-10T21:17:44.544Z,104.57
2018-01-10T21:20:12.164Z,114.00
2018-01-10T21:22:39.642Z,98.77
2018-01-10T21:25:07.057Z,120.17
2018-01-10T21:27:34.481Z,122.73
2018-01-10T21:30:01.852Z,113.00
2018-01-10T21:32:29.225Z,127.00
2018-01-10T21:34:56.637Z,97.90
2018-01-10T21:37:24.007Z,128.93
2018-01-10T21:39:51.421Z,199.40
2018-01-10T21:42:18.844Z,118.20
2018-01-10T21:44:46.209Z,110.40
2018-01-10T21:47:13.576Z,131.97
2018-01-10T21:49:40.987Z,122.17
2018-01-10T21:52:08.357Z,135.80
2018-01-10T21:54:35.742Z,101.93
2018-01-10T21:57:03.165Z,165.43
2018-01-10T21:59:30.551Z,151.10
2018-01-10T22:01:57.974Z,133.47
2018-01-10T22:04:25.376Z,133.77
2018-01-10T22:06:52.752Z,114.77
2018-01-10T22:09:20.154Z,123.17
2018-01-10T22:11:47.582Z,140.10
2018-01-10T22:14:14.949Z,129.63
2018-01-10T22:16:42.358Z,157.53
2018-01-10T22:19:09.730Z,193.63
2018-01-10T22:21:37.110Z,141.10
2018-01-10T22:24:04.532Z,164.07
2018-01-10T22:26:31.918Z,162.03
2018-01-10T22:28:59.285Z,184.57
2018-01-10T22:31:26.690Z,203.07
2018-01-10T22:33:54.077Z,146.40
2018-01-10T22:36:21.438Z,154.03
2018-01-10T22:38:48.866Z,178.93
2018-01-10T22:41:16.246Z,162.17
2018-01-10T22:43:43.619Z,148.07
2018-01-10T22:46:11.099Z,209.77
2018-01-10T22:48:38.438Z,148.47
2018-01-10T22:51:06.647Z,119.80
2018-01-10T22:53:34.040Z,163.70
2018-01-10T22:56:01.411Z,109.57
2018-01-10T22:58:28.809Z,96.63
2018-01-10T23:00:56.205Z,114.93
2018-01-10T23:03:23.567Z,132.03
2018-01-10T23:05:50.946Z,105.37
2018-01-10T23:08:18.381Z,148.83
2018-01-10T23:10:45.754Z,124.90
2018-01-10T23:13:13.149Z,107.93
2018-01-10T23:15:40.563Z,147.80
2018-01-10T23:18:07.932Z,146.97
2018-01-10T23:20:35.302Z,128.13
2018-01-10T23:23:02.704Z,121.53
2018-01-10T23:25:30.070Z,125.37
2018-01-10T23:27:57.442Z,101.17
2018-01-10T23:30:24.857Z,124.20
2018-01-10T23:32:52.241Z,104.87
2018-01-10T23:35:19.617Z,96.37
2018-01-10T23:37:47.030Z,102.23
2018-01-10T23:40:14.394Z,102.47
2018-01-10T23:42:41.809Z,100.67
2018-01-10T23:45:09.204Z,111.33
2018-01-10T23:47:36.569Z,112.93
2018-01-10T23:50:03.986Z,152.33
2018-01-10T23:52:31.409Z,128.77
2018-01-10T23:54:58.781Z,108.93
2018-01-10T23:57:26.196Z,100.30
2018-01-10T23:59:53.558Z,88.00
